createdAt,value
2018-01-23T00:00:04.590Z,1010.73
2018-01-23T00:05:00.805Z,1010.89
2018-01-23T00:10:00.239Z,1010.87
2018-01-23T00:14:55.282Z,1010.96
2018-01-23T00:19:51.808Z,1010.89
2018-01-23T00:24:48.227Z,1010.95
2018-01-23T00:29:45.261Z,1011.19
2018-01-23T00:34:40.677Z,1011.06
2018-01-23T00:39:36.483Z,1011.14
2018-01-23T00:44:32.172Z,1011.09
2018-01-23T00:49:32.705Z,1011.13
2018-01-23T00:54:31.543Z,1011.12
2018-01-23T00:59:31.470Z,1011.06
2018-01-23T01:04:27.225Z,1011.12
2018-01-23T01:09:22.833Z,1011.24
2018-01-23T01:14:19.446Z,1011.24
2018-01-23T01:19:15.672Z,1011.43
2018-01-23T01:24:16.303Z,1011.52
2018-01-23T01:29:15.191Z,1011.49
2018-01-23T01:34:16.010Z,1011.55
2018-01-23T01:39:14.384Z,1011.55
2018-01-23T01:44:13.424Z,1011.50
2018-01-23T01:49:13.402Z,1011.65
2018-01-23T01:54:09.163Z,1011.72
2018-01-23T01:59:08.786Z,1011.75
2018-01-23T02:04:04.680Z,1011.78
2018-01-23T02:08:59.978Z,1011.78
2018-01-23T02:13:55.370Z,1011.95
2018-01-23T02:18:55.184Z,1011.96
2018-01-23T02:23:54.019Z,1012.01
2018-01-23T02:28:54.599Z,1012.03
2018-01-23T02:33:50.623Z,1012.08
2018-01-23T02:38:46.074Z,1012.14
2018-01-23T02:43:45.956Z,1012.16
2018-01-23T02:48:45.924Z,1012.11
2018-01-23T02:53:44.323Z,1012.23
2018-01-23T02:58:40.379Z,1012.26
2018-01-23T03:03:35.944Z,1012.33
2018-01-23T03:08:31.923Z,1012.30
2018-01-23T03:13:32.485Z,1012.44
2018-01-23T03:18:35.224Z,1012.50
2018-01-23T03:23:29.467Z,1012.49
2018-01-23T03:28:25.441Z,1012.55
2018-01-23T03:33:26.993Z,1012.65
2018-01-23T03:38:21.943Z,1012.64
2018-01-23T03:43:17.683Z,1012.61
2018-01-23T03:48:15.533Z,1012.59
2018-01-23T03:53:11.969Z,1012.70
2018-01-23T03:58:07.461Z,1012.72
2018-01-23T04:03:03.246Z,1012.80
2018-01-23T04:08:03.004Z,1012.83
2018-01-23T04:12:57.464Z,1012.83
2018-01-23T04:17:53.543Z,1012.99
2018-01-23T04:22:54.499Z,1012.93
2018-01-23T04:27:53.642Z,1013.01
2018-01-23T04:32:52.751Z,1012.99
2018-01-23T04:37:49.785Z,1013.15
2018-01-23T04:42:45.496Z,1013.23
2018-01-23T04:47:45.293Z,1013.26
2018-01-23T04:52:44.067Z,1013.28
2018-01-23T04:57:39.009Z,1013.42
2018-01-23T05:02:35.581Z,1013.50
2018-01-23T05:07:32.544Z,1013.51
2018-01-23T05:12:28.735Z,1013.47
2018-01-23T05:17:28.148Z,1013.53
2018-01-23T05:22:26.935Z,1013.41
2018-01-23T05:27:25.867Z,1013.56
2018-01-23T05:32:21.102Z,1013.51
2018-01-23T05:37:21.242Z,1013.54
2018-01-23T05:42:20.942Z,1013.65
2018-01-23T05:47:15.669Z,1013.74
2018-01-23T05:52:15.161Z,1013.83
2018-01-23T05:57:10.256Z,1013.88
2018-01-23T06:02:06.155Z,1013.88
2018-01-23T06:07:03.225Z,1013.93
2018-01-23T06:11:58.482Z,1013.96
2018-01-23T06:16:54.351Z,1014.05
2018-01-23T06:21:50.610Z,1014.07
2018-01-23T06:26:46.410Z,1014.02
2018-01-23T06:31:42.608Z,1014.08
2018-01-23T06:36:39.376Z,1014.12
2018-01-23T06:41:35.999Z,1014.19
2018-01-23T06:46:36.638Z,1014.08
2018-01-23T06:51:36.964Z,1014.17
2018-01-23T06:56:31.520Z,1014.27
2018-01-23T07:01:28.229Z,1014.36
2018-01-23T07:06:24.959Z,1014.39
2018-01-23T07:11:22.223Z,1014.42
2018-01-23T07:16:17.607Z,1014.45
2018-01-23T07:21:13.780Z,1014.45
2018-01-23T07:26:09.411Z,1014.39
2018-01-23T07:31:09.054Z,1014.58
2018-01-23T07:36:03.601Z,1014.56
2018-01-23T07:41:04.367Z,1014.59
2018-01-23T07:45:59.470Z,1014.66
2018-01-23T07:50:56.418Z,1014.80
2018-01-23T07:55:51.910Z,1014.78
2018-01-23T08:00:47.577Z,1014.84
2018-01-23T08:05:48.341Z,1014.87
2018-01-23T08:10:43.155Z,1014.86
2018-01-23T08:15:40.144Z,1014.98
2018-01-23T08:20:36.791Z,1014.95
2018-01-23T08:25:34.270Z,1015.01
2018-01-23T08:30:33.458Z,1015.05
2018-01-23T08:35:28.371Z,1015.00
2018-01-23T08:40:24.122Z,1015.04
2018-01-23T08:45:19.400Z,1015.18
2018-01-23T08:50:15.176Z,1015.00
2018-01-23T08:55:12.860Z,1014.92
2018-01-23T09:00:08.744Z,1015.07
2018-01-23T09:05:04.426Z,1015.16
2018-01-23T09:10:01.021Z,1015.09
2018-01-23T09:14:57.330Z,1015.11
2018-01-23T09:19:56.999Z,1015.16
2018-01-23T09:24:55.852Z,1015.16
2018-01-23T09:29:51.498Z,1015.20
2018-01-23T09:34:46.886Z,1015.13
2018-01-23T09:39:42.529Z,1015.26
2018-01-23T09:44:39.603Z,1015.29
2018-01-23T09:49:36.349Z,1015.27
2018-01-23T09:54:37.071Z,1015.23
2018-01-23T09:59:35.845Z,1015.24
2018-01-23T10:04:34.890Z,1015.27
2018-01-23T10:09:34.608Z,1015.25
2018-01-23T10:14:30.337Z,1015.24
2018-01-23T10:19:29.869Z,1015.28
2018-01-23T10:24:24.769Z,1015.25
2018-01-23T10:29:20.564Z,1015.26
2018-01-23T10:34:17.823Z,1015.28
2018-01-23T10:39:13.868Z,1015.27
2018-01-23T10:44:13.868Z,1015.15
2018-01-23T10:49:09.054Z,1015.16
2018-01-23T10:54:04.798Z,1015.04
2018-01-23T10:59:02.416Z,1014.97
2018-01-23T11:03:59.848Z,1015.08
2018-01-23T11:08:56.389Z,1015.05
2018-01-23T11:18:57.767Z,1014.93
2018-01-23T11:23:58.713Z,1014.81
2018-01-23T11:29:00.214Z,1014.87
2018-01-23T11:33:54.870Z,1014.82
2018-01-23T11:38:54.799Z,1014.75
2018-01-23T11:43:53.810Z,1014.72
2018-01-23T11:48:49.701Z,1014.74
2018-01-23T11:53:49.525Z,1014.67
2018-01-23T11:58:48.813Z,1014.63
2018-01-23T12:03:49.394Z,1014.59
2018-01-23T12:08:44.239Z,1014.51
2018-01-23T12:13:40.078Z,1014.42
2018-01-23T12:18:40.627Z,1014.24
2018-01-23T12:23:36.464Z,1014.16
2018-01-23T12:28:37.068Z,1014.14
2018-01-23T12:33:31.785Z,1014.35
2018-01-23T12:38:28.251Z,1014.23
2018-01-23T12:43:25.215Z,1014.17
2018-01-23T12:48:25.762Z,1014.21
2018-01-23T12:53:21.617Z,1014.15
2018-01-23T12:58:17.302Z,1014.12
2018-01-23T13:03:17.177Z,1014.17
2018-01-23T13:08:13.431Z,1014.08
2018-01-23T13:13:14.115Z,1013.96
2018-01-23T13:18:13.608Z,1013.92
2018-01-23T13:23:12.318Z,1013.81
2018-01-23T13:28:08.391Z,1013.78
2018-01-23T13:33:03.968Z,1013.66
2018-01-23T13:38:00.012Z,1013.51
2018-01-23T13:42:56.058Z,1013.49
2018-01-23T13:47:52.722Z,1013.55
2018-01-23T13:52:52.403Z,1013.47
2018-01-23T13:57:51.017Z,1013.37
2018-01-23T14:02:45.748Z,1013.29
2018-01-23T14:07:42.319Z,1013.21
2018-01-23T14:12:37.851Z,1013.17
2018-01-23T14:17:33.491Z,1012.99
2018-01-23T14:22:33.162Z,1013.09
2018-01-23T14:27:28.072Z,1012.95
2018-01-23T14:32:24.171Z,1012.83
2018-01-23T14:37:20.738Z,1012.81
2018-01-23T14:42:16.290Z,1012.78
2018-01-23T14:47:12.200Z,1012.67
2018-01-23T14:52:08.055Z,1012.83
2018-01-23T14:57:03.690Z,1012.83
2018-01-23T15:01:59.366Z,1012.77
2018-01-23T15:06:56.570Z,1012.66
2018-01-23T15:11:52.007Z,1012.66
2018-01-23T15:16:47.889Z,1012.74
2018-01-23T15:21:43.488Z,1012.58
2018-01-23T15:26:39.522Z,1012.62
2018-01-23T15:31:35.212Z,1012.45
2018-01-23T15:36:31.203Z,1012.43
2018-01-23T15:41:26.666Z,1012.45
2018-01-23T15:46:22.695Z,1012.34
2018-01-23T15:51:22.265Z,1012.30
2018-01-23T15:56:17.074Z,1012.21
2018-01-23T16:01:16.740Z,1012.33
2018-01-23T16:11:11.976Z,1012.21
2018-01-23T16:16:07.080Z,1012.32
2018-01-23T16:21:03.475Z,1012.18
2018-01-23T16:25:58.881Z,1012.21
2018-01-23T16:30:54.490Z,1012.35
2018-01-23T16:35:50.192Z,1012.23
2018-01-23T16:40:49.862Z,1012.14
2018-01-23T16:45:45.655Z,1012.04
2018-01-23T16:50:45.035Z,1011.93
2018-01-23T16:55:40.901Z,1011.86
2018-01-23T17:00:36.653Z,1011.97
2018-01-23T17:05:32.029Z,1011.97
2018-01-23T17:10:31.632Z,1011.99
2018-01-23T17:15:30.581Z,1011.99
2018-01-23T17:20:25.824Z,1011.98
2018-01-23T17:25:21.676Z,1011.93
2018-01-23T17:30:17.908Z,1011.83
2018-01-23T17:35:18.214Z,1011.91
2018-01-23T17:40:14.030Z,1011.83
2018-01-23T17:45:13.872Z,1011.85
2018-01-23T17:50:09.182Z,1011.85
2018-01-23T17:55:06.109Z,1011.78
2018-01-23T18:00:06.518Z,1011.82
2018-01-23T18:05:02.506Z,1011.64
2018-01-23T18:09:58.105Z,1011.81
2018-01-23T18:14:53.684Z,1011.68
2018-01-23T18:19:49.857Z,1011.66
2018-01-23T18:24:49.679Z,1011.60
2018-01-23T18:29:44.593Z,1011.56
2018-01-23T18:34:41.340Z,1011.40
2018-01-23T18:39:37.057Z,1011.30
2018-01-23T18:44:37.422Z,1011.18
2018-01-23T18:49:32.717Z,1011.20
2018-01-23T18:54:28.414Z,1011.25
2018-01-23T18:59:29.218Z,1011.24
2018-01-23T19:04:29.230Z,1011.25
2018-01-23T19:09:27.717Z,1011.37
2018-01-23T19:14:26.450Z,1011.31
2018-01-23T19:19:25.630Z,1011.25
2018-01-23T19:24:21.186Z,1011.33
2018-01-23T19:29:17.173Z,1011.35
2018-01-23T19:34:18.264Z,1011.37
2018-01-23T19:39:12.623Z,1011.20
2018-01-23T19:44:09.242Z,1011.29
2018-01-23T19:49:04.253Z,1011.26
2018-01-23T19:54:05.971Z,1011.42
2018-01-23T19:59:00.527Z,1011.46
2018-01-23T20:04:00.426Z,1011.43
2018-01-23T20:08:59.419Z,1011.28
2018-01-23T20:13:58.343Z,1011.13
2018-01-23T20:18:57.270Z,1011.06
2018-01-23T20:23:56.167Z,1011.19
2018-01-23T20:28:55.388Z,1011.24
2018-01-23T20:33:50.360Z,1011.33
2018-01-23T20:38:45.915Z,1011.11
2018-01-23T20:43:45.513Z,1011.05
2018-01-23T20:48:40.342Z,1010.99
2018-01-23T20:53:38.122Z,1010.97
2018-01-23T20:58:33.344Z,1010.99
2018-01-23T21:03:29.062Z,1011.01
2018-01-23T21:08:29.763Z,1011.01
2018-01-23T21:13:29.335Z,1011.05
2018-01-23T21:18:29.048Z,1011.01
2018-01-23T21:23:23.550Z,1010.95
2018-01-23T21:28:21.087Z,1011.00
2018-01-23T21:33:17.870Z,1010.99
2018-01-23T21:38:13.297Z,1011.05
2018-01-23T21:43:12.759Z,1011.04
2018-01-23T21:48:07.587Z,1011.08
2018-01-23T21:53:07.371Z,1011.13
2018-01-23T21:58:07.175Z,1011.05
2018-01-23T22:03:06.594Z,1011.06
2018-01-23T22:08:04.917Z,1011.01
2018-01-23T22:13:03.777Z,1010.95
2018-01-23T22:17:59.926Z,1010.99
2018-01-23T22:22:55.400Z,1010.94
2018-01-23T22:27:55.994Z,1010.93
2018-01-23T22:32:54.720Z,1010.92
2018-01-23T22:37:54.221Z,1010.95
2018-01-23T22:42:49.139Z,1010.98
2018-01-23T22:47:44.924Z,1010.86
2018-01-23T22:52:45.695Z,1010.93
2018-01-23T22:57:42.485Z,1010.92
2018-01-23T23:02:38.925Z,1010.85
2018-01-23T23:07:34.127Z,1010.78
2018-01-23T23:12:34.060Z,1010.99
2018-01-23T23:17:29.101Z,1010.93
2018-01-23T23:22:25.082Z,1011.15
2018-01-23T23:27:20.936Z,1011.04
2018-01-23T23:32:21.786Z,1011.13
2018-01-23T23:37:21.255Z,1011.06
2018-01-23T23:42:22.154Z,1011.03
2018-01-23T23:47:22.567Z,1010.92
2018-01-23T23:52:17.133Z,1010.99
2018-01-23T23:57:13.537Z,1011.05
